sensor_id;sensor_type;location;lat;lon;timestamp;pressure;altitude;pressure_sealevel;temperature;humidity
19594;BME280;9944;48.240;16.478;2023-03-21T00:03:44;99934.56;;;10.55;63.52
19594;BME280;9944;48.240;16.478;2023-03-21T00:07:49;99936.34;;;10.56;63.53
19594;BME280;9944;48.240;16.478;2023-03-21T00:11:54;99929.28;;;10.55;63.43
19594;BME280;9944;48.240;16.478;2023-03-21T00:16:02;99927.56;;;10.54;63.49
19594;BME280;9944;48.240;16.478;2023-03-21T00:20:20;99924.91;;;10.54;63.57
19594;BME280;9944;48.240;16.478;2023-03-21T00:24:24;99928.44;;;10.56;63.42
19594;BME280;9944;48.240;16.478;2023-03-21T00:28:28;99918.72;;;10.56;63.41
19594;BME280;9944;48.240;16.478;2023-03-21T00:32:31;99917.88;;;10.56;63.17
19594;BME280;9944;48.240;16.478;2023-03-21T00:36:40;99917.00;;;10.54;62.96
19594;BME280;9944;48.240;16.478;2023-03-21T00:40:43;99915.22;;;10.53;63.00
19594;BME280;9944;48.240;16.478;2023-03-21T00:44:51;99911.72;;;10.48;63.08
19594;BME280;9944;48.240;16.478;2023-03-21T00:48:54;99910.84;;;10.42;62.82
19594;BME280;9944;48.240;16.478;2023-03-21T00:52:57;99909.97;;;10.28;63.08
19594;BME280;9944;48.240;16.478;2023-03-21T00:57:00;99900.31;;;10.19;63.52
19594;BME280;9944;48.240;16.478;2023-03-21T01:01:05;99906.47;;;10.14;63.78
19594;BME280;9944;48.240;16.478;2023-03-21T01:05:10;99905.59;;;10.07;64.40
19594;BME280;9944;48.240;16.478;2023-03-21T01:09:15;99901.19;;;9.97;64.53
19594;BME280;9944;48.240;16.478;2023-03-21T01:13:21;99908.25;;;9.96;64.70
19594;BME280;9944;48.240;16.478;2023-03-21T01:17:26;99895.91;;;9.95;64.89
19594;BME280;9944;48.240;16.478;2023-03-21T01:21:29;99898.56;;;9.98;65.07
19594;BME280;9944;48.240;16.478;2023-03-21T01:25:32;99904.72;;;10.00;64.80
19594;BME280;9944;48.240;16.478;2023-03-21T01:29:35;99897.66;;;9.99;64.91
19594;BME280;9944;48.240;16.478;2023-03-21T01:33:40;99897.66;;;9.99;65.48
19594;BME280;9944;48.240;16.478;2023-03-21T01:37:44;99895.94;;;10.01;65.06
19594;BME280;9944;48.240;16.478;2023-03-21T01:41:49;99895.03;;;10.02;65.68
19594;BME280;9944;48.240;16.478;2023-03-21T01:51:10;99892.41;;;10.10;66.01
19594;BME280;9944;48.240;16.478;2023-03-21T01:55:28;99887.16;;;10.12;66.13
19594;BME280;9944;48.240;16.478;2023-03-21T01:59:37;99884.47;;;10.15;66.44
19594;BME280;9944;48.240;16.478;2023-03-21T02:04:08;99885.34;;;10.17;66.54
19594;BME280;9944;48.240;16.478;2023-03-21T02:08:27;99888.00;;;10.20;66.34
19594;BME280;9944;48.240;16.478;2023-03-21T02:12:43;99882.72;;;10.23;66.18
19594;BME280;9944;48.240;16.478;2023-03-21T02:16:52;99874.81;;;10.24;66.37
19594;BME280;9944;48.240;16.478;2023-03-21T02:26:10;99880.09;;;10.26;66.61
19594;BME280;9944;48.240;16.478;2023-03-21T02:35:32;99878.31;;;10.31;66.17
19594;BME280;9944;48.240;16.478;2023-03-21T02:39:59;99873.91;;;10.33;65.81
19594;BME280;9944;48.240;16.478;2023-03-21T02:44:17;99866.00;;;10.36;65.89
19594;BME280;9944;48.240;16.478;2023-03-21T02:48:26;99853.69;;;10.35;65.95
19594;BME280;9944;48.240;16.478;2023-03-21T02:52:51;99858.09;;;10.36;66.14
19594;BME280;9944;48.240;16.478;2023-03-21T02:56:58;99861.59;;;10.38;66.02
19594;BME280;9944;48.240;16.478;2023-03-21T03:01:04;99865.09;;;10.42;66.06
19594;BME280;9944;48.240;16.478;2023-03-21T03:05:15;99866.88;;;10.43;65.71
19594;BME280;9944;48.240;16.478;2023-03-21T03:09:30;99860.69;;;10.42;65.87
19594;BME280;9944;48.240;16.478;2023-03-21T03:13:53;99862.47;;;10.40;65.76
19594;BME280;9944;48.240;16.478;2023-03-21T03:18:02;99864.25;;;10.38;65.67
19594;BME280;9944;48.240;16.478;2023-03-21T03:22:12;99866.88;;;10.35;65.72
19594;BME280;9944;48.240;16.478;2023-03-21T03:26:18;99869.50;;;10.32;65.52
19594;BME280;9944;48.240;16.478;2023-03-21T03:30:25;99864.25;;;10.26;65.49
19594;BME280;9944;48.240;16.478;2023-03-21T03:34:45;99862.47;;;10.22;65.60
19594;BME280;9944;48.240;16.478;2023-03-21T03:38:54;99859.88;;;10.16;65.51
19594;BME280;9944;48.240;16.478;2023-03-21T03:43:02;99856.34;;;10.09;65.52
19594;BME280;9944;48.240;16.478;2023-03-21T03:47:16;99856.34;;;10.03;65.14
19594;BME280;9944;48.240;16.478;2023-03-21T03:51:37;99851.09;;;9.97;64.98
19594;BME280;9944;48.240;16.478;2023-03-21T03:55:58;99862.50;;;9.88;65.46
19594;BME280;9944;48.240;16.478;2023-03-21T04:00:05;99859.84;;;9.83;65.39
19594;BME280;9944;48.240;16.478;2023-03-21T04:04:19;99854.59;;;9.77;65.87
19594;BME280;9944;48.240;16.478;2023-03-21T04:08:25;99858.06;;;9.72;65.80
19594;BME280;9944;48.240;16.478;2023-03-21T04:12:31;99857.19;;;9.69;65.92
19594;BME280;9944;48.240;16.478;2023-03-21T04:17:01;99857.19;;;9.66;65.89
19594;BME280;9944;48.240;16.478;2023-03-21T04:21:11;99841.38;;;9.66;65.92
19594;BME280;9944;48.240;16.478;2023-03-21T04:25:15;99853.69;;;9.64;66.15
19594;BME280;9944;48.240;16.478;2023-03-21T04:29:34;99856.34;;;9.61;66.50
19594;BME280;9944;48.240;16.478;2023-03-21T04:34:04;99862.47;;;9.60;66.09
19594;BME280;9944;48.240;16.478;2023-03-21T04:38:12;99870.38;;;9.57;66.03
19594;BME280;9944;48.240;16.478;2023-03-21T04:42:17;99874.75;;;9.52;66.26
19594;BME280;9944;48.240;16.478;2023-03-21T04:46:21;99871.22;;;9.50;66.32
19594;BME280;9944;48.240;16.478;2023-03-21T04:50:25;99878.25;;;9.48;66.56
19594;BME280;9944;48.240;16.478;2023-03-21T04:54:29;99880.88;;;9.42;66.75
19594;BME280;9944;48.240;16.478;2023-03-21T04:58:32;99880.00;;;9.40;66.40
19594;BME280;9944;48.240;16.478;2023-03-21T05:02:36;99882.63;;;9.34;66.57
19594;BME280;9944;48.240;16.478;2023-03-21T05:06:40;99878.22;;;9.29;66.22
19594;BME280;9944;48.240;16.478;2023-03-21T05:10:45;99892.25;;;9.25;66.82
19594;BME280;9944;48.240;16.478;2023-03-21T05:14:50;99887.84;;;9.21;66.44
19594;BME280;9944;48.240;16.478;2023-03-21T05:18:53;99892.22;;;9.19;66.58
19594;BME280;9944;48.240;16.478;2023-03-21T05:22:56;99900.13;;;9.19;66.54
19594;BME280;9944;48.240;16.478;2023-03-21T05:27:01;99901.03;;;9.18;66.78
19594;BME280;9944;48.240;16.478;2023-03-21T05:31:12;99911.56;;;9.18;66.70
19594;BME280;9944;48.240;16.478;2023-03-21T05:35:19;99911.53;;;9.15;66.64
19594;BME280;9944;48.240;16.478;2023-03-21T05:39:22;99913.28;;;9.13;66.83
19594;BME280;9944;48.240;16.478;2023-03-21T05:43:36;99915.03;;;9.08;66.58
19594;BME280;9944;48.240;16.478;2023-03-21T05:47:39;99909.72;;;9.03;66.84
19594;BME280;9944;48.240;16.478;2023-03-21T05:51:44;99909.69;;;8.99;66.61
19594;BME280;9944;48.240;16.478;2023-03-21T05:55:47;99904.44;;;8.96;66.50
19594;BME280;9944;48.240;16.478;2023-03-21T06:00:12;99909.66;;;8.89;66.63
19594;BME280;9944;48.240;16.478;2023-03-21T06:04:27;99904.38;;;8.83;67.18
19594;BME280;9944;48.240;16.478;2023-03-21T06:08:30;99902.63;;;8.85;67.24
19594;BME280;9944;48.240;16.478;2023-03-21T06:12:34;99904.38;;;8.83;67.90
19594;BME280;9944;48.240;16.478;2023-03-21T06:16:55;99906.16;;;8.87;68.47
19594;BME280;9944;48.240;16.478;2023-03-21T06:20:59;99912.31;;;8.99;68.64
19594;BME280;9944;48.240;16.478;2023-03-21T06:25:03;99915.03;;;9.08;68.48
19594;BME280;9944;48.240;16.478;2023-03-21T06:29:08;99909.81;;;9.20;68.64
19594;BME280;9944;48.240;16.478;2023-03-21T06:33:13;99919.50;;;9.30;68.06
19594;BME280;9944;48.240;16.478;2023-03-21T06:37:17;99910.75;;;9.47;68.03
19594;BME280;9944;48.240;16.478;2023-03-21T06:41:21;99929.22;;;9.59;67.93
19594;BME280;9944;48.240;16.478;2023-03-21T06:45:32;99930.13;;;9.67;67.88
19594;BME280;9944;48.240;16.478;2023-03-21T06:49:40;99926.63;;;9.79;67.84
19594;BME280;9944;48.240;16.478;2023-03-21T06:53:46;99931.03;;;9.86;67.56
19594;BME280;9944;48.240;16.478;2023-03-21T06:57:56;99923.16;;;9.99;67.46
19594;BME280;9944;48.240;16.478;2023-03-21T07:02:01;99920.53;;;10.10;67.18
19594;BME280;9944;48.240;16.478;2023-03-21T07:06:10;99923.16;;;10.25;66.51
19594;BME280;9944;48.240;16.478;2023-03-21T07:10:15;99918.78;;;10.33;66.24
19594;BME280;9944;48.240;16.478;2023-03-21T07:14:25;99911.72;;;10.48;65.93
19594;BME280;9944;48.240;16.478;2023-03-21T07:18:28;99927.53;;;10.60;65.66
19594;BME280;9944;48.240;16.478;2023-03-21T07:22:33;99920.47;;;10.68;65.35
19594;BME280;9944;48.240;16.478;2023-03-21T07:26:38;99928.38;;;10.79;64.29
19594;BME280;9944;48.240;16.478;2023-03-21T07:30:41;99930.09;;;10.91;63.95
19594;BME280;9944;48.240;16.478;2023-03-21T07:34:44;99930.09;;;10.97;63.13
19594;BME280;9944;48.240;16.478;2023-03-21T07:38:48;99932.69;;;11.09;62.99
19594;BME280;9944;48.240;16.478;2023-03-21T07:42:56;99932.69;;;11.12;61.86
19594;BME280;9944;48.240;16.478;2023-03-21T07:47:05;99930.00;;;11.17;62.36
19594;BME280;9944;48.240;16.478;2023-03-21T07:51:07;99930.84;;;11.27;61.99
19594;BME280;9944;48.240;16.478;2023-03-21T07:55:12;99924.69;;;11.34;61.63
19594;BME280;9944;48.240;16.478;2023-03-21T07:59:15;99921.09;;;11.47;62.10
19594;BME280;9944;48.240;16.478;2023-03-21T08:03:18;99923.66;;;11.63;61.64
19594;BME280;9944;48.240;16.478;2023-03-21T08:07:21;99921.81;;;11.74;60.60
19594;BME280;9944;48.240;16.478;2023-03-21T08:11:26;99924.44;;;11.77;60.53
19594;BME280;9944;48.240;16.478;2023-03-21T08:15:31;99921.72;;;11.86;60.36
19594;BME280;9944;48.240;16.478;2023-03-21T08:19:35;99919.06;;;11.89;60.13
19594;BME280;9944;48.240;16.478;2023-03-21T08:23:38;99916.34;;;11.96;59.73
19594;BME280;9944;48.240;16.478;2023-03-21T08:27:44;99922.47;;;12.04;58.25
19594;BME280;9944;48.240;16.478;2023-03-21T08:31:47;99912.81;;;12.00;58.41
19594;BME280;9944;48.240;16.478;2023-03-21T08:35:50;99923.41;;;11.97;58.56
19594;BME280;9944;48.240;16.478;2023-03-21T08:39:54;99911.88;;;12.07;58.55
19594;BME280;9944;48.240;16.478;2023-03-21T08:43:58;99914.41;;;12.19;58.17
19594;BME280;9944;48.240;16.478;2023-03-21T08:48:01;99911.72;;;12.25;57.98
19594;BME280;9944;48.240;16.478;2023-03-21T08:52:04;99917.03;;;12.27;57.51
19594;BME280;9944;48.240;16.478;2023-03-21T08:56:08;99912.53;;;12.34;57.85
19594;BME280;9944;48.240;16.478;2023-03-21T09:00:15;99917.75;;;12.43;58.01
19594;BME280;9944;48.240;16.478;2023-03-21T09:04:18;99922.94;;;12.58;57.37
19594;BME280;9944;48.240;16.478;2023-03-21T09:08:22;99910.53;;;12.63;56.05
19594;BME280;9944;48.240;16.478;2023-03-21T09:12:25;99911.41;;;12.61;56.98
19594;BME280;9944;48.240;16.478;2023-03-21T09:16:29;99907.84;;;12.65;56.31
19594;BME280;9944;48.240;16.478;2023-03-21T09:20:33;99914.03;;;12.67;56.62
19594;BME280;9944;48.240;16.478;2023-03-21T09:24:39;99898.06;;;12.72;56.02
19594;BME280;9944;48.240;16.478;2023-03-21T09:28:43;99909.59;;;12.67;56.10
19594;BME280;9944;48.240;16.478;2023-03-21T09:32:48;99904.22;;;12.74;56.62
19594;BME280;9944;48.240;16.478;2023-03-21T09:36:51;99900.56;;;12.82;56.01
19594;BME280;9944;48.240;16.478;2023-03-21T09:41:05;99901.44;;;12.86;55.79
19594;BME280;9944;48.240;16.478;2023-03-21T09:45:15;99894.22;;;12.97;56.54
19594;BME280;9944;48.240;16.478;2023-03-21T09:49:24;99894.91;;;13.13;56.41
19594;BME280;9944;48.240;16.478;2023-03-21T09:53:34;99888.59;;;13.23;55.67
19594;BME280;9944;48.240;16.478;2023-03-21T09:57:40;99883.25;;;13.28;55.42
19594;BME280;9944;48.240;16.478;2023-03-21T10:01:47;99879.50;;;13.41;54.85
19594;BME280;9944;48.240;16.478;2023-03-21T10:05:54;99873.25;;;13.47;53.91
19594;BME280;9944;48.240;16.478;2023-03-21T10:10:01;99874.09;;;13.51;53.70
19594;BME280;9944;48.240;16.478;2023-03-21T10:14:10;99863.34;;;13.60;53.45
19594;BME280;9944;48.240;16.478;2023-03-21T10:18:19;99865.00;;;13.67;53.28
19594;BME280;9944;48.240;16.478;2023-03-21T10:22:24;99855.97;;;13.80;53.64
19594;BME280;9944;48.240;16.478;2023-03-21T10:26:28;99847.78;;;13.94;53.58
19594;BME280;9944;48.240;16.478;2023-03-21T10:30:36;99844.84;;;14.11;53.24
19594;BME280;9944;48.240;16.478;2023-03-21T10:34:42;99847.25;;;14.27;52.47
19594;BME280;9944;48.240;16.478;2023-03-21T10:38:52;99841.78;;;14.34;51.62
19594;BME280;9944;48.240;16.478;2023-03-21T10:43:15;99852.13;;;14.50;51.15
19594;BME280;9944;48.240;16.478;2023-03-21T10:47:20;99852.88;;;14.56;51.11
19594;BME280;9944;48.240;16.478;2023-03-21T10:51:26;99848.47;;;14.55;50.03
19594;BME280;9944;48.240;16.478;2023-03-21T10:55:33;99848.56;;;14.51;49.52
19594;BME280;9944;48.240;16.478;2023-03-21T10:59:39;99844.28;;;14.42;48.95
19594;BME280;9944;48.240;16.478;2023-03-21T11:03:45;99844.41;;;14.36;49.24
19594;BME280;9944;48.240;16.478;2023-03-21T11:07:56;99842.41;;;14.47;49.74
19594;BME280;9944;48.240;16.478;2023-03-21T11:12:03;99841.44;;;14.53;49.61
19594;BME280;9944;48.240;16.478;2023-03-21T11:16:10;99836.00;;;14.59;49.47
19594;BME280;9944;48.240;16.478;2023-03-21T11:20:16;99834.00;;;14.72;50.63
19594;BME280;9944;48.240;16.478;2023-03-21T11:24:20;99821.38;;;14.82;49.14
19594;BME280;9944;48.240;16.478;2023-03-21T11:28:31;99806.50;;;14.73;48.78
19594;BME280;9944;48.240;16.478;2023-03-21T11:32:36;99816.28;;;14.71;49.16
19594;BME280;9944;48.240;16.478;2023-03-21T11:36:40;99811.09;;;14.65;48.37
19594;BME280;9944;48.240;16.478;2023-03-21T11:40:51;99805.00;;;14.60;49.64
19594;BME280;9944;48.240;16.478;2023-03-21T11:45:09;99803.94;;;14.68;48.78
19594;BME280;9944;48.240;16.478;2023-03-21T11:49:13;99785.19;;;14.74;49.45
19594;BME280;9944;48.240;16.478;2023-03-21T11:53:26;99781.44;;;14.86;48.95
19594;BME280;9944;48.240;16.478;2023-03-21T11:57:37;99773.22;;;14.97;48.00
19594;BME280;9944;48.240;16.478;2023-03-21T12:01:54;99769.53;;;15.04;48.11
19594;BME280;9944;48.240;16.478;2023-03-21T12:06:01;99754.19;;;15.17;48.45
19594;BME280;9944;48.240;16.478;2023-03-21T12:10:26;99754.78;;;15.28;47.88
19594;BME280;9944;48.240;16.478;2023-03-21T12:14:38;99747.44;;;15.40;48.78
19594;BME280;9944;48.240;16.478;2023-03-21T12:18:59;99740.97;;;15.50;48.10
19594;BME280;9944;48.240;16.478;2023-03-21T12:27:40;99733.06;;;15.81;48.17
19594;BME280;9944;48.240;16.478;2023-03-21T12:31:56;99731.22;;;15.85;47.80
19594;BME280;9944;48.240;16.478;2023-03-21T12:36:11;99718.41;;;15.99;47.64
19594;BME280;9944;48.240;16.478;2023-03-21T12:40:28;99710.47;;;15.98;46.31
19594;BME280;9944;48.240;16.478;2023-03-21T12:44:38;99706.66;;;15.74;46.35
19594;BME280;9944;48.240;16.478;2023-03-21T12:48:44;99705.06;;;15.66;46.27
19594;BME280;9944;48.240;16.478;2023-03-21T12:52:53;99699.03;;;15.60;47.12
19594;BME280;9944;48.240;16.478;2023-03-21T12:57:01;99701.41;;;15.70;47.08
19594;BME280;9944;48.240;16.478;2023-03-21T13:01:08;99690.44;;;15.83;46.47
19594;BME280;9944;48.240;16.478;2023-03-21T13:05:17;99696.56;;;15.88;46.48
19594;BME280;9944;48.240;16.478;2023-03-21T13:09:33;99674.41;;;15.86;46.45
19594;BME280;9944;48.240;16.478;2023-03-21T13:13:42;99668.66;;;16.01;47.36
19594;BME280;9944;48.240;16.478;2023-03-21T13:17:50;99669.97;;;16.18;45.33
19594;BME280;9944;48.240;16.478;2023-03-21T13:22:01;99670.53;;;15.98;45.30
19594;BME280;9944;48.240;16.478;2023-03-21T13:26:10;99671.81;;;15.83;45.79
19594;BME280;9944;48.240;16.478;2023-03-21T13:30:19;99665.81;;;15.75;46.05
19594;BME280;9944;48.240;16.478;2023-03-21T13:34:23;99660.59;;;15.70;45.71
19594;BME280;9944;48.240;16.478;2023-03-21T13:38:28;99659.00;;;15.64;46.23
19594;BME280;9944;48.240;16.478;2023-03-21T13:42:32;99654.72;;;15.59;46.28
19594;BME280;9944;48.240;16.478;2023-03-21T13:46:43;99653.13;;;15.52;46.02
19594;BME280;9944;48.240;16.478;2023-03-21T13:50:59;99655.88;;;15.48;46.17
19594;BME280;9944;48.240;16.478;2023-03-21T13:55:13;99645.19;;;15.50;46.51
19594;BME280;9944;48.240;16.478;2023-03-21T13:59:35;99653.19;;;15.50;46.48
19594;BME280;9944;48.240;16.478;2023-03-21T14:03:38;99646.91;;;15.51;46.64
19594;BME280;9944;48.240;16.478;2023-03-21T14:07:45;99637.22;;;15.50;46.73
19594;BME280;9944;48.240;16.478;2023-03-21T14:11:52;99632.94;;;15.43;46.30
19594;BME280;9944;48.240;16.478;2023-03-21T14:16:08;99630.53;;;15.34;46.00
19594;BME280;9944;48.240;16.478;2023-03-21T14:20:18;99629.03;;;15.23;45.64
19594;BME280;9944;48.240;16.478;2023-03-21T14:24:22;99630.16;;;15.13;46.22
19594;BME280;9944;48.240;16.478;2023-03-21T14:28:26;99624.06;;;15.09;46.56
19594;BME280;9944;48.240;16.478;2023-03-21T14:32:34;99616.13;;;15.08;46.58
19594;BME280;9944;48.240;16.478;2023-03-21T14:36:38;99623.19;;;15.09;46.59
19594;BME280;9944;48.240;16.478;2023-03-21T14:40:51;99614.31;;;15.10;47.04
19594;BME280;9944;48.240;16.478;2023-03-21T14:44:54;99607.25;;;15.09;47.08
19594;BME280;9944;48.240;16.478;2023-03-21T14:49:16;99600.91;;;15.13;46.65
19594;BME280;9944;48.240;16.478;2023-03-21T14:53:23;99598.13;;;15.19;47.04
19594;BME280;9944;48.240;16.478;2023-03-21T14:57:31;99597.94;;;15.25;46.92
19594;BME280;9944;48.240;16.478;2023-03-21T15:01:36;99589.88;;;15.28;46.41
19594;BME280;9944;48.240;16.478;2023-03-21T15:05:40;99592.50;;;15.30;46.37
19594;BME280;9944;48.240;16.478;2023-03-21T15:09:52;99592.47;;;15.31;46.00
19594;BME280;9944;48.240;16.478;2023-03-21T15:13:56;99588.97;;;15.29;46.00
19594;BME280;9944;48.240;16.478;2023-03-21T15:18:03;99595.16;;;15.30;46.19
19594;BME280;9944;48.240;16.478;2023-03-21T15:22:15;99591.66;;;15.29;46.39
19594;BME280;9944;48.240;16.478;2023-03-21T15:26:20;99590.72;;;15.30;45.55
19594;BME280;9944;48.240;16.478;2023-03-21T15:30:28;99589.06;;;15.26;46.05
19594;BME280;9944;48.240;16.478;2023-03-21T15:34:31;99589.97;;;15.25;46.22
19594;BME280;9944;48.240;16.478;2023-03-21T15:38:38;99585.56;;;15.24;46.09
19594;BME280;9944;48.240;16.478;2023-03-21T15:42:43;99588.28;;;15.23;46.08
19594;BME280;9944;48.240;16.478;2023-03-21T15:46:48;99586.63;;;15.19;45.65
19594;BME280;9944;48.240;16.478;2023-03-21T15:50:56;99581.50;;;15.09;45.76
19594;BME280;9944;48.240;16.478;2023-03-21T15:55:15;99578.09;;;15.04;46.33
19594;BME280;9944;48.240;16.478;2023-03-21T15:59:24;99578.88;;;15.08;46.95
19594;BME280;9944;48.240;16.478;2023-03-21T16:03:30;99584.13;;;15.11;46.43
19594;BME280;9944;48.240;16.478;2023-03-21T16:07:34;99571.78;;;15.10;46.83
19594;BME280;9944;48.240;16.478;2023-03-21T16:11:39;99573.50;;;15.11;47.16
19594;BME280;9944;48.240;16.478;2023-03-21T16:15:44;99580.66;;;15.09;46.86
19594;BME280;9944;48.240;16.478;2023-03-21T16:19:47;99573.56;;;15.08;46.88
19594;BME280;9944;48.240;16.478;2023-03-21T16:23:50;99578.88;;;15.08;47.02
19594;BME280;9944;48.240;16.478;2023-03-21T16:27:55;99581.56;;;15.08;46.83
19594;BME280;9944;48.240;16.478;2023-03-21T16:31:58;99578.94;;;15.06;46.86
19594;BME280;9944;48.240;16.478;2023-03-21T16:36:11;99582.56;;;15.04;46.90
19594;BME280;9944;48.240;16.478;2023-03-21T16:40:22;99587.88;;;15.04;46.87
19594;BME280;9944;48.240;16.478;2023-03-21T16:44:29;99583.56;;;15.00;47.05
19594;BME280;9944;48.240;16.478;2023-03-21T16:48:32;99580.91;;;15.00;47.29
19594;BME280;9944;48.240;16.478;2023-03-21T16:52:35;99584.50;;;14.97;47.25
19594;BME280;9944;48.240;16.478;2023-03-21T16:56:40;99590.75;;;14.96;47.70
19594;BME280;9944;48.240;16.478;2023-03-21T17:00:48;99581.91;;;14.94;47.87
19594;BME280;9944;48.240;16.478;2023-03-21T17:04:51;99585.50;;;14.93;47.80
19594;BME280;9944;48.240;16.478;2023-03-21T17:08:57;99580.22;;;14.91;47.92
19594;BME280;9944;48.240;16.478;2023-03-21T17:13:01;99575.78;;;14.90;47.85
19594;BME280;9944;48.240;16.478;2023-03-21T17:17:11;99593.56;;;14.88;47.96
19594;BME280;9944;48.240;16.478;2023-03-21T17:21:17;99586.53;;;14.87;48.00
19594;BME280;9944;48.240;16.478;2023-03-21T17:25:21;99575.97;;;14.84;47.98
19594;BME280;9944;48.240;16.478;2023-03-21T17:29:24;99592.81;;;14.82;47.97
19594;BME280;9944;48.240;16.478;2023-03-21T17:33:29;99581.44;;;14.75;48.00
19594;BME280;9944;48.240;16.478;2023-03-21T17:37:32;99598.44;;;14.69;48.05
19594;BME280;9944;48.240;16.478;2023-03-21T17:41:36;99590.59;;;14.65;48.38
19594;BME280;9944;48.240;16.478;2023-03-21T17:45:39;99590.66;;;14.62;48.51
19594;BME280;9944;48.240;16.478;2023-03-21T17:49:43;99602.25;;;14.56;48.62
19594;BME280;9944;48.240;16.478;2023-03-21T17:53:48;99596.25;;;14.49;48.59
19594;BME280;9944;48.240;16.478;2023-03-21T17:57:52;99585.78;;;14.42;49.04
19594;BME280;9944;48.240;16.478;2023-03-21T18:01:55;99592.13;;;14.36;48.96
19594;BME280;9944;48.240;16.478;2023-03-21T18:05:59;99597.66;;;14.27;49.18
19594;BME280;9944;48.240;16.478;2023-03-21T18:10:03;99607.66;;;14.12;49.53
19594;BME280;9944;48.240;16.478;2023-03-21T18:14:06;99606.19;;;13.99;49.80
19594;BME280;9944;48.240;16.478;2023-03-21T18:18:19;99609.00;;;13.91;49.93
19594;BME280;9944;48.240;16.478;2023-03-21T18:22:23;99618.03;;;13.82;50.09
19594;BME280;9944;48.240;16.478;2023-03-21T18:26:26;99621.69;;;13.77;50.40
19594;BME280;9944;48.240;16.478;2023-03-21T18:30:31;99617.31;;;13.73;50.36
19594;BME280;9944;48.240;16.478;2023-03-21T18:34:54;99624.50;;;13.66;50.52
19594;BME280;9944;48.240;16.478;2023-03-21T18:39:02;99624.75;;;13.54;50.77
19594;BME280;9944;48.240;16.478;2023-03-21T18:43:05;99619.59;;;13.44;50.95
19594;BME280;9944;48.240;16.478;2023-03-21T18:47:28;99625.94;;;13.36;51.02
19594;BME280;9944;48.240;16.478;2023-03-21T18:51:31;99628.88;;;13.19;51.50
19594;BME280;9944;48.240;16.478;2023-03-21T18:55:36;99625.59;;;13.04;52.25
19594;BME280;9944;48.240;16.478;2023-03-21T18:59:47;99629.22;;;13.00;52.43
19594;BME280;9944;48.240;16.478;2023-03-21T19:03:50;99627.50;;;12.96;52.41
19594;BME280;9944;48.240;16.478;2023-03-21T19:08:19;99634.75;;;12.85;52.48
19594;BME280;9944;48.240;16.478;2023-03-21T19:12:24;99629.59;;;12.76;52.44
19594;BME280;9944;48.240;16.478;2023-03-21T19:16:27;99635.91;;;12.67;52.33
19594;BME280;9944;48.240;16.478;2023-03-21T19:20:41;99633.31;;;12.62;52.71
19594;BME280;9944;48.240;16.478;2023-03-21T19:24:45;99627.31;;;12.49;52.61
19594;BME280;9944;48.240;16.478;2023-03-21T19:28:49;99628.34;;;12.38;52.63
19594;BME280;9944;48.240;16.478;2023-03-21T19:32:52;99633.75;;;12.30;52.82
19594;BME280;9944;48.240;16.478;2023-03-21T19:36:55;99632.09;;;12.21;53.22
19594;BME280;9944;48.240;16.478;2023-03-21T19:40:59;99628.69;;;12.13;53.01
19594;BME280;9944;48.240;16.478;2023-03-21T19:45:04;99624.34;;;12.07;53.47
19594;BME280;9944;48.240;16.478;2023-03-21T19:49:07;99621.78;;;12.01;53.28
19594;BME280;9944;48.240;16.478;2023-03-21T19:53:11;99629.81;;;11.92;53.60
19594;BME280;9944;48.240;16.478;2023-03-21T19:57:14;99630.78;;;11.83;53.54
19594;BME280;9944;48.240;16.478;2023-03-21T20:01:19;99641.47;;;11.74;53.59
19594;BME280;9944;48.240;16.478;2023-03-21T20:05:22;99641.59;;;11.65;54.02
19594;BME280;9944;48.240;16.478;2023-03-21T20:09:26;99653.19;;;11.50;55.17
19594;BME280;9944;48.240;16.478;2023-03-21T20:13:50;99661.22;;;11.39;56.37
19594;BME280;9944;48.240;16.478;2023-03-21T20:17:55;99666.53;;;11.36;56.57
19594;BME280;9944;48.240;16.478;2023-03-21T20:21:59;99658.63;;;11.34;56.50
19594;BME280;9944;48.240;16.478;2023-03-21T20:26:07;99662.19;;;11.33;56.58
19594;BME280;9944;48.240;16.478;2023-03-21T20:30:13;99666.56;;;11.31;56.70
19594;BME280;9944;48.240;16.478;2023-03-21T20:34:18;99670.09;;;11.30;56.84
19594;BME280;9944;48.240;16.478;2023-03-21T20:38:22;99663.03;;;11.34;56.86
19594;BME280;9944;48.240;16.478;2023-03-21T20:42:25;99673.59;;;11.37;56.52
19594;BME280;9944;48.240;16.478;2023-03-21T20:46:30;99673.59;;;11.37;56.18
19594;BME280;9944;48.240;16.478;2023-03-21T20:50:34;99684.19;;;11.34;55.78
19594;BME280;9944;48.240;16.478;2023-03-21T20:54:43;99676.25;;;11.29;55.57
19594;BME280;9944;48.240;16.478;2023-03-21T20:58:51;99675.41;;;11.26;55.88
19594;BME280;9944;48.240;16.478;2023-03-21T21:03:12;99674.53;;;11.24;55.56
19594;BME280;9944;48.240;16.478;2023-03-21T21:07:18;99673.63;;;11.28;55.90
19594;BME280;9944;48.240;16.478;2023-03-21T21:11:22;99670.97;;;11.34;55.90
19594;BME280;9944;48.240;16.478;2023-03-21T21:15:45;99669.16;;;11.39;55.88
19594;BME280;9944;48.240;16.478;2023-03-21T21:19:48;99669.13;;;11.42;55.78
19594;BME280;9944;48.240;16.478;2023-03-21T21:23:52;99668.22;;;11.46;56.01
19594;BME280;9944;48.240;16.478;2023-03-21T21:27:55;99668.19;;;11.49;55.58
19594;BME280;9944;48.240;16.478;2023-03-21T21:31:59;99661.09;;;11.51;55.83
19594;BME280;9944;48.240;16.478;2023-03-21T21:36:07;99660.19;;;11.54;55.86
19594;BME280;9944;48.240;16.478;2023-03-21T21:40:13;99659.31;;;11.53;55.76
19594;BME280;9944;48.240;16.478;2023-03-21T21:44:20;99664.59;;;11.53;55.85
19594;BME280;9944;48.240;16.478;2023-03-21T21:48:24;99661.97;;;11.52;55.73
19594;BME280;9944;48.240;16.478;2023-03-21T21:52:27;99662.88;;;11.52;55.86
19594;BME280;9944;48.240;16.478;2023-03-21T21:56:32;99659.31;;;11.53;56.18
19594;BME280;9944;48.240;16.478;2023-03-21T22:00:39;99659.31;;;11.56;56.08
19594;BME280;9944;48.240;16.478;2023-03-21T22:04:43;99666.28;;;11.61;56.07
19594;BME280;9944;48.240;16.478;2023-03-21T22:08:46;99661.91;;;11.61;56.11
19594;BME280;9944;48.240;16.478;2023-03-21T22:12:54;99663.66;;;11.61;56.28
19594;BME280;9944;48.240;16.478;2023-03-21T22:16:57;99673.34;;;11.62;56.47